createdAt,value
2022-12-23T00:01:28.509Z,83.85
2022-12-23T00:03:59.896Z,84.53
2022-12-23T00:06:28.243Z,83.73
2022-12-23T00:08:58.654Z,84.11
2022-12-23T00:11:29.848Z,84.78
2022-12-23T00:14:21.114Z,84.49
2022-12-23T00:16:51.351Z,84.25
2022-12-23T00:19:19.518Z,84.70
2022-12-23T00:21:48.564Z,84.35
2022-12-23T00:24:16.534Z,84.45
2022-12-23T00:26:45.802Z,84.23
2022-12-23T00:29:13.971Z,83.97
2022-12-23T00:31:41.856Z,84.25
2022-12-23T00:34:12.214Z,85.06
2022-12-23T00:36:40.785Z,86.36
2022-12-23T00:39:30.657Z,86.67
2022-12-23T00:42:17.382Z,85.87
2022-12-23T00:44:45.844Z,86.36
2022-12-23T00:47:34.994Z,86.71
2022-12-23T00:50:01.964Z,86.38
2022-12-23T00:52:29.748Z,86.28
2022-12-23T00:54:57.761Z,86.48
2022-12-23T00:57:27.000Z,86.72
2022-12-23T00:59:54.760Z,87.16
2022-12-23T01:02:40.509Z,86.99
2022-12-23T01:05:37.380Z,86.55
2022-12-23T01:08:07.127Z,86.26
2022-12-23T01:10:36.064Z,86.75
2022-12-23T01:13:05.550Z,87.13
2022-12-23T01:15:34.714Z,87.18
2022-12-23T01:18:02.499Z,87.50
2022-12-23T01:20:30.293Z,86.57
2022-12-23T01:22:58.156Z,87.31
2022-12-23T01:25:26.114Z,87.81
2022-12-23T01:27:53.860Z,87.96
2022-12-23T01:30:23.460Z,87.63
2022-12-23T01:32:51.357Z,87.18
2022-12-23T01:35:19.332Z,87.17
2022-12-23T01:37:47.320Z,87.66
2022-12-23T01:40:15.225Z,86.23
2022-12-23T01:42:44.914Z,86.07
2022-12-23T01:45:19.906Z,86.51
2022-12-23T01:47:56.910Z,86.75
2022-12-23T01:50:32.366Z,85.60
2022-12-23T01:53:08.501Z,86.14
2022-12-23T01:55:42.962Z,84.56
2022-12-23T01:58:16.221Z,84.56
2022-12-23T02:01:02.760Z,83.39
2022-12-23T02:03:44.686Z,83.14
2022-12-23T02:06:38.288Z,83.30
2022-12-23T02:09:20.084Z,83.87
2022-12-23T02:12:38.857Z,84.24
2022-12-23T02:15:50.867Z,83.57
2022-12-23T02:18:42.092Z,83.30
2022-12-23T02:21:58.227Z,83.87
2022-12-23T02:25:17.050Z,83.29
2022-12-23T02:28:10.246Z,82.66
2022-12-23T02:30:49.518Z,82.76
2022-12-23T02:33:44.772Z,82.54
2022-12-23T02:36:35.543Z,82.62
2022-12-23T02:39:11.198Z,82.15
2022-12-23T02:41:50.034Z,82.52
2022-12-23T02:44:31.067Z,83.92
2022-12-23T02:47:06.672Z,84.10
2022-12-23T02:49:40.465Z,82.63
2022-12-23T02:52:15.208Z,83.52
2022-12-23T02:54:49.886Z,83.14
2022-12-23T02:57:25.866Z,83.35
2022-12-23T02:59:55.270Z,83.00
2022-12-23T03:02:24.787Z,81.93
2022-12-23T03:04:52.645Z,82.23
2022-12-23T03:07:28.966Z,82.55
2022-12-23T03:10:06.471Z,80.97
2022-12-23T03:12:56.131Z,80.96
2022-12-23T03:15:40.152Z,81.91
2022-12-23T03:18:25.194Z,82.05
2022-12-23T03:20:59.795Z,81.52
2022-12-23T03:23:33.594Z,83.26
2022-12-23T03:26:10.040Z,84.43
2022-12-23T03:28:46.148Z,83.61
2022-12-23T03:31:23.002Z,83.01
2022-12-23T03:33:58.329Z,82.43
2022-12-23T03:36:34.019Z,81.92
2022-12-23T03:39:06.784Z,82.93
2022-12-23T03:41:42.047Z,84.27
2022-12-23T03:44:17.359Z,84.64
2022-12-23T03:46:51.909Z,85.60
2022-12-23T03:49:28.931Z,84.37
2022-12-23T03:52:04.840Z,84.13
2022-12-23T03:54:42.348Z,82.46
2022-12-23T03:57:14.236Z,82.68
2022-12-23T03:59:46.598Z,82.97
2022-12-23T04:02:23.705Z,83.12
2022-12-23T04:05:11.717Z,83.92
2022-12-23T04:07:46.537Z,83.21
2022-12-23T04:10:15.602Z,82.32
2022-12-23T04:12:45.207Z,82.74
2022-12-23T04:15:13.677Z,82.08
2022-12-23T04:17:41.579Z,83.32
2022-12-23T04:20:12.303Z,83.08
2022-12-23T04:22:43.403Z,82.73
2022-12-23T04:25:11.825Z,82.64
2022-12-23T04:27:40.130Z,82.54
2022-12-23T04:30:11.506Z,83.67
2022-12-23T04:32:39.492Z,82.22
2022-12-23T04:35:08.169Z,82.64
2022-12-23T04:37:37.609Z,81.54
2022-12-23T04:40:07.714Z,82.37
2022-12-23T04:42:35.753Z,81.58
2022-12-23T04:45:03.904Z,81.82
2022-12-23T04:47:31.664Z,82.72
2022-12-23T04:49:59.697Z,82.12
2022-12-23T04:52:27.715Z,81.80
2022-12-23T04:54:56.867Z,82.38
2022-12-23T04:57:24.687Z,82.76
2022-12-23T04:59:52.481Z,82.24
2022-12-23T05:02:20.464Z,81.59
2022-12-23T05:04:48.303Z,82.09
2022-12-23T05:07:16.410Z,82.23
2022-12-23T05:09:44.454Z,82.64
2022-12-23T05:12:13.868Z,82.76
2022-12-23T05:14:42.135Z,83.61
2022-12-23T05:17:09.955Z,83.02
2022-12-23T05:19:37.699Z,82.92
2022-12-23T05:22:05.780Z,83.42
2022-12-23T05:24:33.573Z,82.42
2022-12-23T05:27:01.282Z,81.89
2022-12-23T05:29:30.703Z,80.65
2022-12-23T05:31:58.631Z,81.40
2022-12-23T05:34:26.479Z,81.83
2022-12-23T05:36:54.260Z,81.84
2022-12-23T05:39:22.183Z,80.82
2022-12-23T05:41:49.979Z,81.33
2022-12-23T05:44:17.795Z,80.75
2022-12-23T05:46:47.206Z,80.79
2022-12-23T05:49:15.170Z,80.65
2022-12-23T05:51:42.993Z,80.35
2022-12-23T05:54:10.992Z,80.54
2022-12-23T05:56:38.727Z,80.32
2022-12-23T05:59:06.628Z,79.90
2022-12-23T06:01:34.667Z,79.31
2022-12-23T06:04:04.380Z,79.48
2022-12-23T06:06:32.321Z,78.53
2022-12-23T06:09:00.510Z,78.76
2022-12-23T06:11:28.822Z,78.31
2022-12-23T06:13:56.623Z,77.36
2022-12-23T06:16:24.487Z,77.16
2022-12-23T06:18:56.258Z,78.17
2022-12-23T06:21:26.582Z,77.44
2022-12-23T06:23:54.372Z,77.03
2022-12-23T06:26:22.534Z,76.39
2022-12-23T06:28:50.392Z,76.73
2022-12-23T06:31:18.360Z,77.58
2022-12-23T06:33:46.670Z,76.76
2022-12-23T06:36:14.465Z,77.42
2022-12-23T06:38:43.628Z,76.87
2022-12-23T06:41:11.371Z,76.62
2022-12-23T06:43:39.213Z,77.89
2022-12-23T06:46:07.062Z,76.93
2022-12-23T06:48:35.017Z,76.86
2022-12-23T06:51:02.880Z,76.64
2022-12-23T06:53:30.638Z,76.08
2022-12-23T06:56:03.191Z,76.19
2022-12-23T06:58:31.176Z,76.03
2022-12-23T07:00:59.262Z,75.83
2022-12-23T07:03:27.136Z,76.32
2022-12-23T07:05:55.365Z,76.88
2022-12-23T07:08:23.296Z,76.16
2022-12-23T07:10:51.237Z,76.37
2022-12-23T07:13:20.336Z,75.63
2022-12-23T07:15:48.294Z,75.62
2022-12-23T07:18:16.275Z,76.00
2022-12-23T07:20:44.243Z,76.36
2022-12-23T07:23:12.204Z,76.05
2022-12-23T07:25:40.060Z,77.05
2022-12-23T07:28:08.219Z,79.96
2022-12-23T07:30:37.753Z,78.68
2022-12-23T07:33:05.515Z,79.86
2022-12-23T07:35:33.795Z,79.30
2022-12-23T07:38:01.819Z,80.91
2022-12-23T07:40:29.768Z,82.27
2022-12-23T07:42:59.980Z,80.17
2022-12-23T07:45:28.954Z,78.04
2022-12-23T07:48:00.948Z,79.86
2022-12-23T07:50:32.312Z,78.23
2022-12-23T07:53:00.688Z,77.75
2022-12-23T07:55:28.651Z,77.27
2022-12-23T07:57:56.611Z,76.82
2022-12-23T08:00:24.641Z,76.25
2022-12-23T08:02:52.687Z,76.70
2022-12-23T08:05:22.299Z,76.64
2022-12-23T08:07:50.601Z,76.84
2022-12-23T08:10:18.774Z,77.16
2022-12-23T08:12:47.520Z,77.86
2022-12-23T08:15:15.940Z,79.38
2022-12-23T08:17:44.296Z,78.05
2022-12-23T08:20:12.814Z,77.24
2022-12-23T08:22:41.957Z,76.61
2022-12-23T08:25:10.365Z,76.22
2022-12-23T08:27:38.208Z,76.95
2022-12-23T08:30:08.028Z,77.36
2022-12-23T08:32:35.954Z,78.19
2022-12-23T08:35:03.777Z,77.81
2022-12-23T08:37:31.531Z,77.34
2022-12-23T08:40:01.109Z,77.24
2022-12-23T08:42:29.137Z,76.84
2022-12-23T08:44:57.225Z,76.47
2022-12-23T08:47:24.991Z,75.93
2022-12-23T08:49:53.276Z,76.20
2022-12-23T08:52:21.081Z,76.90
2022-12-23T08:54:48.928Z,75.29
2022-12-23T08:57:18.382Z,75.40
2022-12-23T08:59:47.269Z,76.67
2022-12-23T09:02:15.384Z,77.54
2022-12-23T09:04:43.584Z,77.07
2022-12-23T09:07:11.470Z,76.85
2022-12-23T09:09:39.445Z,77.58
2022-12-23T09:12:07.612Z,76.95
2022-12-23T09:14:36.887Z,77.86
2022-12-23T09:17:04.904Z,77.68
2022-12-23T09:19:32.748Z,77.52
2022-12-23T09:22:00.450Z,76.99
2022-12-23T09:24:28.676Z,76.29
2022-12-23T09:26:56.503Z,76.13
2022-12-23T09:29:24.454Z,75.13
2022-12-23T09:31:54.145Z,75.82
2022-12-23T09:34:22.045Z,76.07
2022-12-23T09:36:55.034Z,76.10
2022-12-23T09:39:24.411Z,75.50
2022-12-23T09:42:14.500Z,74.87
2022-12-23T09:45:12.312Z,76.05
2022-12-23T09:47:44.184Z,75.39
2022-12-23T09:50:25.216Z,77.54
2022-12-23T09:53:03.505Z,80.34
2022-12-23T09:55:45.180Z,80.12
2022-12-23T09:58:29.149Z,80.36
2022-12-23T10:01:15.683Z,80.19
2022-12-23T10:04:18.127Z,80.50
2022-12-23T10:06:56.324Z,82.08
2022-12-23T10:09:30.853Z,80.25
2022-12-23T10:12:00.832Z,80.00
2022-12-23T10:14:33.076Z,79.88
2022-12-23T10:17:10.698Z,79.67
2022-12-23T10:19:45.091Z,79.21
2022-12-23T10:22:22.194Z,79.21
2022-12-23T10:24:51.534Z,78.33
2022-12-23T10:27:29.379Z,77.66
2022-12-23T10:30:13.920Z,77.25
2022-12-23T10:33:04.523Z,77.90
2022-12-23T10:35:51.085Z,78.20
2022-12-23T10:38:47.494Z,78.52
2022-12-23T10:41:35.317Z,78.66
2022-12-23T10:45:00.677Z,77.51
2022-12-23T10:47:49.085Z,77.06
2022-12-23T10:50:55.436Z,76.53
2022-12-23T10:53:36.734Z,77.52
2022-12-23T10:56:07.884Z,77.09
2022-12-23T10:58:41.639Z,76.91
2022-12-23T11:01:18.852Z,77.59
2022-12-23T11:04:04.238Z,77.51
2022-12-23T11:06:39.824Z,77.22
2022-12-23T11:09:18.042Z,77.23
2022-12-23T11:11:57.990Z,76.89
2022-12-23T11:14:38.978Z,76.94
2022-12-23T11:17:20.458Z,77.17
2022-12-23T11:19:48.276Z,76.57
2022-12-23T11:22:26.386Z,77.46
2022-12-23T11:24:54.168Z,77.65
2022-12-23T11:27:22.148Z,77.60
2022-12-23T11:29:55.388Z,77.16
2022-12-23T11:32:27.261Z,77.66
2022-12-23T11:34:57.084Z,77.55
2022-12-23T11:37:37.190Z,77.85
2022-12-23T11:40:15.736Z,77.79
2022-12-23T11:42:44.354Z,77.47
2022-12-23T11:45:24.256Z,77.72
2022-12-23T11:47:52.374Z,78.02
2022-12-23T11:50:34.391Z,78.31
2022-12-23T11:53:20.866Z,77.75
2022-12-23T11:56:02.111Z,77.64
2022-12-23T11:58:37.202Z,78.36
2022-12-23T12:01:17.515Z,78.46
2022-12-23T12:03:52.034Z,78.53
2022-12-23T12:06:22.827Z,78.36
2022-12-23T12:08:54.707Z,79.10
2022-12-23T12:11:28.880Z,80.29
2022-12-23T12:14:01.953Z,79.99
2022-12-23T12:16:55.001Z,80.29
2022-12-23T12:19:29.495Z,79.84
2022-12-23T12:22:03.435Z,79.83
2022-12-23T12:24:42.893Z,79.70
2022-12-23T12:27:12.824Z,80.06
2022-12-23T12:29:48.104Z,80.04
2022-12-23T12:32:23.560Z,80.21
2022-12-23T12:35:00.056Z,80.73
2022-12-23T12:37:39.059Z,80.87
2022-12-23T12:40:29.098Z,80.58
2022-12-23T12:43:05.858Z,81.00
2022-12-23T12:45:39.222Z,81.87
2022-12-23T12:48:41.897Z,81.78
2022-12-23T12:51:22.080Z,81.77
2022-12-23T12:54:19.477Z,82.08
2022-12-23T12:56:53.243Z,81.29
2022-12-23T12:59:25.955Z,81.75
2022-12-23T13:02:31.898Z,82.04
2022-12-23T13:05:38.983Z,82.72
2022-12-23T13:08:32.450Z,83.14
2022-12-23T13:11:10.699Z,82.77
2022-12-23T13:13:51.324Z,82.83
2022-12-23T13:16:41.887Z,82.41
2022-12-23T13:19:26.384Z,82.52
2022-12-23T13:22:07.604Z,82.30
2022-12-23T13:24:49.425Z,82.89
2022-12-23T13:27:28.190Z,82.93
2022-12-23T13:30:13.044Z,83.04
2022-12-23T13:33:23.170Z,83.01
2022-12-23T13:36:12.889Z,82.83
2022-12-23T13:39:03.943Z,83.25
2022-12-23T13:41:36.604Z,83.43
2022-12-23T13:44:07.448Z,83.71
2022-12-23T13:46:53.160Z,83.74
2022-12-23T13:49:47.165Z,83.96
2022-12-23T13:52:27.440Z,83.69
2022-12-23T13:55:11.646Z,84.30
2022-12-23T13:57:55.833Z,84.18
2022-12-23T14:00:30.455Z,84.07
2022-12-23T14:03:24.623Z,83.83
2022-12-23T14:05:54.263Z,84.35
2022-12-23T14:08:29.669Z,83.38
2022-12-23T14:11:00.914Z,83.33
2022-12-23T14:13:45.831Z,83.77
2022-12-23T14:16:41.986Z,83.73
2022-12-23T14:19:40.541Z,83.27
2022-12-23T14:22:31.731Z,83.81
2022-12-23T14:25:41.046Z,83.82
2022-12-23T14:28:28.927Z,83.26
2022-12-23T14:30:57.408Z,83.78
2022-12-23T14:33:29.042Z,83.15
2022-12-23T14:36:22.101Z,83.00
2022-12-23T14:39:32.865Z,82.58
2022-12-23T14:42:05.923Z,83.01
2022-12-23T14:44:52.576Z,83.51
2022-12-23T14:47:34.912Z,82.31
2022-12-23T14:50:42.645Z,82.49
2022-12-23T14:53:26.601Z,82.88
2022-12-23T14:56:21.625Z,82.09
2022-12-23T14:59:14.535Z,82.13
2022-12-23T15:01:48.624Z,82.85
2022-12-23T15:04:25.523Z,82.91
2022-12-23T15:06:57.362Z,83.08
2022-12-23T15:09:31.219Z,82.55
2022-12-23T15:12:03.138Z,82.94
2022-12-23T15:14:36.701Z,82.88
2022-12-23T15:17:26.361Z,82.89
2022-12-23T15:20:03.074Z,83.08
2022-12-23T15:22:32.883Z,82.94
2022-12-23T15:25:02.133Z,83.09
2022-12-23T15:27:36.359Z,82.83
2022-12-23T15:30:04.942Z,82.79
2022-12-23T15:32:33.007Z,82.35
2022-12-23T15:35:06.887Z,83.88
2022-12-23T15:37:35.883Z,83.65
2022-12-23T15:40:13.408Z,84.72
2022-12-23T15:42:48.973Z,85.15
2022-12-23T15:45:34.858Z,84.54
2022-12-23T15:48:05.517Z,84.91
2022-12-23T15:50:42.338Z,84.10
2022-12-23T15:53:14.227Z,83.45
2022-12-23T15:55:43.717Z,83.08
2022-12-23T15:58:22.444Z,82.32
2022-12-23T16:00:57.490Z,81.99
2022-12-23T16:03:34.527Z,82.61
2022-12-23T16:06:18.585Z,81.62
2022-12-23T16:08:47.054Z,81.82
2022-12-23T16:11:19.443Z,82.90
2022-12-23T16:13:59.413Z,84.15
2022-12-23T16:16:43.000Z,84.85
2022-12-23T16:19:43.096Z,83.04
2022-12-23T16:22:38.460Z,82.74
2022-12-23T16:25:16.236Z,83.10
2022-12-23T16:27:50.199Z,82.83
2022-12-23T16:30:21.754Z,82.43
2022-12-23T16:32:54.590Z,82.76
2022-12-23T16:35:31.526Z,81.56
2022-12-23T16:38:14.116Z,83.12
2022-12-23T16:40:43.578Z,83.35
2022-12-23T16:43:12.998Z,83.86
2022-12-23T16:45:42.226Z,83.22
2022-12-23T16:48:20.277Z,83.54
2022-12-23T16:50:49.760Z,84.12
2022-12-23T16:53:17.878Z,83.97
2022-12-23T16:55:52.429Z,85.30
2022-12-23T16:58:26.313Z,83.85
2022-12-23T17:00:54.907Z,84.57
2022-12-23T17:03:22.963Z,84.60
2022-12-23T17:05:50.790Z,84.87
2022-12-23T17:08:18.879Z,84.92
2022-12-23T17:10:47.796Z,84.48
2022-12-23T17:13:19.555Z,84.13
2022-12-23T17:15:48.798Z,83.07
2022-12-23T17:18:18.942Z,83.90
2022-12-23T17:20:49.933Z,84.46
2022-12-23T17:23:28.888Z,83.86
2022-12-23T17:25:57.042Z,83.92
2022-12-23T17:28:30.485Z,83.48
2022-12-23T17:31:01.517Z,83.99
2022-12-23T17:33:32.387Z,84.69
2022-12-23T17:36:00.578Z,85.09
2022-12-23T17:38:30.028Z,85.16
2022-12-23T17:40:59.423Z,85.46
2022-12-23T17:43:28.289Z,86.92
2022-12-23T17:45:56.259Z,87.09
2022-12-23T17:48:31.347Z,85.21
2022-12-23T17:51:00.049Z,84.76
2022-12-23T17:53:28.003Z,85.34
2022-12-23T17:55:56.275Z,84.93
2022-12-23T17:58:25.076Z,84.09
2022-12-23T18:00:53.050Z,84.47
2022-12-23T18:03:26.006Z,85.06
2022-12-23T18:06:01.241Z,86.17
2022-12-23T18:08:29.871Z,86.70
2022-12-23T18:10:59.481Z,85.74
2022-12-23T18:13:27.498Z,84.74
2022-12-23T18:15:55.588Z,83.81
2022-12-23T18:18:37.746Z,84.76
2022-12-23T18:21:24.816Z,83.74
2022-12-23T18:23:56.520Z,82.88
2022-12-23T18:26:25.923Z,83.59
2022-12-23T18:28:54.332Z,83.31
2022-12-23T18:31:27.172Z,82.46
2022-12-23T18:33:57.364Z,83.15
2022-12-23T18:36:27.974Z,84.54
2022-12-23T18:38:57.062Z,85.64
2022-12-23T18:41:26.530Z,83.85
2022-12-23T18:43:55.348Z,83.08
2022-12-23T18:46:23.778Z,83.95
2022-12-23T18:48:52.075Z,84.94
2022-12-23T18:51:22.695Z,83.85
2022-12-23T18:53:50.916Z,85.10
2022-12-23T18:56:21.265Z,85.78
2022-12-23T18:58:49.605Z,86.23
2022-12-23T19:01:19.358Z,84.73
2022-12-23T19:03:47.545Z,86.80
2022-12-23T19:06:16.980Z,85.91
2022-12-23T19:08:46.547Z,84.87
2022-12-23T19:11:18.024Z,84.14
2022-12-23T19:13:46.616Z,84.08
2022-12-23T19:16:16.118Z,83.96
2022-12-23T19:18:44.561Z,83.76
2022-12-23T19:21:13.258Z,84.34
2022-12-23T19:23:42.444Z,85.12
2022-12-23T19:26:14.972Z,86.83
2022-12-23T19:28:43.400Z,86.14
2022-12-23T19:31:15.134Z,85.89
2022-12-23T19:33:45.559Z,85.31
2022-12-23T19:36:16.187Z,84.81
2022-12-23T19:38:44.028Z,85.23
2022-12-23T19:41:13.229Z,85.09
2022-12-23T19:43:44.741Z,84.71
2022-12-23T19:46:15.192Z,85.04
2022-12-23T19:48:43.735Z,84.50
2022-12-23T19:51:14.895Z,83.50
2022-12-23T19:53:44.773Z,85.77
2022-12-23T19:56:17.120Z,85.34
2022-12-23T19:58:46.133Z,83.84
2022-12-23T20:01:16.887Z,84.09
2022-12-23T20:03:47.589Z,82.99
2022-12-23T20:06:20.011Z,82.26
2022-12-23T20:08:48.877Z,82.38
2022-12-23T20:11:20.614Z,82.89
2022-12-23T20:13:53.591Z,83.07
2022-12-23T20:16:22.335Z,82.63
2022-12-23T20:18:50.188Z,82.27
2022-12-23T20:21:18.480Z,81.97
2022-12-23T20:23:46.877Z,81.20
2022-12-23T20:26:17.701Z,81.50
2022-12-23T20:28:47.619Z,80.62
2022-12-23T20:31:20.550Z,82.04
2022-12-23T20:33:50.041Z,81.04
2022-12-23T20:36:21.606Z,81.18
2022-12-23T20:38:51.473Z,81.32
2022-12-23T20:41:22.928Z,80.88
2022-12-23T20:44:31.604Z,80.05
2022-12-23T20:46:40.877Z,80.02
2022-12-23T20:49:09.062Z,82.71
2022-12-23T20:51:37.163Z,81.58
2022-12-23T20:54:05.863Z,80.83
2022-12-23T20:56:33.987Z,80.59
2022-12-23T20:59:45.919Z,81.01
2022-12-23T21:02:14.598Z,81.86
2022-12-23T21:04:43.035Z,83.30
2022-12-23T21:07:10.877Z,85.98
2022-12-23T21:09:38.815Z,87.12
2022-12-23T21:12:07.128Z,87.32
2022-12-23T21:14:35.338Z,87.51
2022-12-23T21:17:04.429Z,87.36
2022-12-23T21:19:32.850Z,87.28
2022-12-23T21:22:00.860Z,87.43
2022-12-23T21:24:28.889Z,87.50
2022-12-23T21:26:57.426Z,87.88
2022-12-23T21:29:26.585Z,88.09
2022-12-23T21:31:54.977Z,87.28
2022-12-23T21:34:25.105Z,87.56
2022-12-23T21:36:53.539Z,87.95
2022-12-23T21:39:21.451Z,87.68
2022-12-23T21:41:51.213Z,87.04
2022-12-23T21:44:19.160Z,87.32
2022-12-23T21:46:47.334Z,88.07
2022-12-23T21:49:15.156Z,88.56
2022-12-23T21:51:44.270Z,88.98
2022-12-23T21:54:13.121Z,87.89
2022-12-23T21:56:42.244Z,88.00
2022-12-23T21:59:14.491Z,87.43
2022-12-23T22:01:43.416Z,87.46
2022-12-23T22:04:12.180Z,87.98
2022-12-23T22:06:44.895Z,88.34
2022-12-23T22:09:15.739Z,88.22
2022-12-23T22:11:44.586Z,88.65
2022-12-23T22:14:16.056Z,89.27
2022-12-23T22:16:44.245Z,88.38
2022-12-23T22:19:13.173Z,88.23
2022-12-23T22:21:42.453Z,88.33
2022-12-23T22:24:12.496Z,88.98
2022-12-23T22:26:41.594Z,89.12
2022-12-23T22:29:09.506Z,89.41
2022-12-23T22:31:42.043Z,89.78
2022-12-23T22:34:15.103Z,89.52
2022-12-23T22:36:43.338Z,89.34
2022-12-23T22:39:20.656Z,89.14
2022-12-23T22:41:50.569Z,88.85
2022-12-23T22:44:19.853Z,88.59
2022-12-23T22:46:47.994Z,88.42
2022-12-23T22:49:16.873Z,88.89
2022-12-23T22:51:45.828Z,89.19
2022-12-23T22:54:15.220Z,89.38
2022-12-23T22:56:43.158Z,89.34
2022-12-23T22:59:22.026Z,89.68
2022-12-23T23:01:51.622Z,89.18
2022-12-23T23:04:19.964Z,89.34
2022-12-23T23:06:48.306Z,89.71
2022-12-23T23:09:21.126Z,89.16
2022-12-23T23:11:49.565Z,88.61
2022-12-23T23:14:18.540Z,88.45
2022-12-23T23:16:46.416Z,89.00
2022-12-23T23:19:15.115Z,89.14
2022-12-23T23:21:43.488Z,89.32
2022-12-23T23:24:11.886Z,89.43
2022-12-23T23:26:41.157Z,89.34
2022-12-23T23:29:09.465Z,88.60
2022-12-23T23:31:42.910Z,88.32
2022-12-23T23:34:11.884Z,88.39
2022-12-23T23:36:40.187Z,88.84
2022-12-23T23:39:08.121Z,89.31
2022-12-23T23:41:36.268Z,89.45
2022-12-23T23:44:06.581Z,89.66
2022-12-23T23:46:35.614Z,90.09
2022-12-23T23:49:03.692Z,90.05
2022-12-23T23:51:32.105Z,90.20
2022-12-23T23:54:00.369Z,90.01
2022-12-23T23:56:35.777Z,89.73
2022-12-23T23:59:09.448Z,89.57
